Time;durP1;ratioP1;P1;durP2;ratioP2;P2;SDS_P1;SDS_P2;PMS_P1;PMS_P2;Temp;Humidity;BMP_temperature;BMP_pressure;BME280_temperature;BME280_humidity;BME280_pressure;Samples;Min_cycle;Max_cycle;Signal;HPM_P1;HPM_P2
2021/08/18 00:00:33;;;;;;;;;;;;;;;25.07;53.11;100301.41;5110143;28;1609;-43
2021/08/18 00:02:59;;;;;;;;;;;;;;;25.07;52.92;100306.81;5097431;28;1460;-43
2021/08/18 00:05:35;;;;;;;;;;;;;;;25.06;52.52;100307.88;5093946;28;1270;-43
2021/08/18 00:08:02;;;;;;;;;;;;;;;25.08;52.46;100319.34;5094361;28;1970;-43
2021/08/18 00:10:30;;;;;;;;;;;;;;;25.02;53.09;100315.50;5094539;28;1901;-43
2021/08/18 00:12:57;;;;;;;;;;;;;;;24.99;52.46;100303.22;5102457;28;1629;-43
2021/08/18 00:15:29;;;;;;;;;;;;;;;24.94;52.43;100297.50;5107503;28;1634;-44
2021/08/18 00:18:00;;;;;;;;;;;;;;;24.87;52.90;100304.69;5101734;28;1478;-43
2021/08/18 00:20:28;;;;;;;;;;;;;;;24.73;52.97;100317.19;5095058;28;1371;-43
2021/08/18 00:23:02;;;;;;;;;;;;;;;24.78;52.61;100319.31;5095171;28;1757;-44
2021/08/18 00:25:29;;;;;;;;;;;;;;;24.86;52.06;100316.53;5110639;27;1386;-43
2021/08/18 00:28:01;;;;;;;;;;;;;;;24.83;52.41;100307.94;5112386;28;2086;-43
2021/08/18 00:30:28;;;;;;;;;;;;;;;24.91;53.13;100322.25;5112934;28;1902;-43
2021/08/18 00:33:01;;;;;;;;;;;;;;;24.87;52.92;100311.94;5099588;28;1454;-43
2021/08/18 00:35:27;;;;;;;;;;;;;;;24.94;52.95;100327.25;5094592;28;1534;-43
2021/08/18 00:38:00;;;;;;;;;;;;;;;25.00;52.64;100333.81;5096432;28;1585;-44
2021/08/18 00:40:48;;;;;;;;;;;;;;;25.01;52.45;100317.38;5092962;28;1866;-43
2021/08/18 00:43:22;;;;;;;;;;;;;;;25.03;53.20;100311.81;5095042;28;1412;-43
2021/08/18 00:45:51;;;;;;;;;;;;;;;25.04;52.90;100313.47;5096658;28;1555;-43
2021/08/18 00:48:23;;;;;;;;;;;;;;;25.09;52.93;100326.41;5103799;28;1530;-43
2021/08/18 00:51:11;;;;;;;;;;;;;;;25.04;53.33;100328.84;5092514;28;1906;-43
2021/08/18 00:53:38;;;;;;;;;;;;;;;25.02;52.89;100327.16;5097956;28;1611;-43
2021/08/18 00:56:07;;;;;;;;;;;;;;;25.06;52.83;100321.41;5102302;28;1724;-43
2021/08/18 00:58:34;;;;;;;;;;;;;;;25.08;53.19;100330.16;5103744;28;1678;-43
2021/08/18 01:01:02;;;;;;;;;;;;;;;25.12;52.43;100326.06;5100767;28;1436;-44
2021/08/18 01:03:35;;;;;;;;;;;;;;;25.08;53.31;100325.59;5104493;28;1616;-43
2021/08/18 01:06:17;;;;;;;;;;;;;;;25.06;52.73;100326.81;5091572;28;2040;-43
2021/08/18 01:08:46;;;;;;;;;;;;;;;25.01;52.96;100321.97;5100773;28;1646;-43
2021/08/18 01:11:13;;;;;;;;;;;;;;;25.00;53.08;100318.41;5102232;28;1905;-43
2021/08/18 01:13:43;;;;;;;;;;;;;;;25.01;53.12;100313.84;5103192;28;1552;-43
2021/08/18 01:16:11;;;;;;;;;;;;;;;25.01;53.86;100328.22;5103377;28;1697;-43
2021/08/18 01:18:42;;;;;;;;;;;;;;;24.97;53.44;100326.06;5097963;28;1686;-43
2021/08/18 01:21:12;;;;;;;;;;;;;;;24.95;52.77;100328.94;5092420;28;1457;-43
2021/08/18 01:23:40;;;;;;;;;;;;;;;24.95;52.64;100320.00;5100500;28;1826;-43
2021/08/18 01:26:06;;;;;;;;;;;;;;;24.98;52.83;100320.44;5103653;28;1767;-43
2021/08/18 01:28:34;;;;;;;;;;;;;;;24.98;52.54;100308.81;5099079;28;2072;-43
2021/08/18 01:31:01;;;;;;;;;;;;;;;25.06;52.81;100313.28;5098343;28;1910;-43
2021/08/18 01:33:27;;;;;;;;;;;;;;;25.10;52.44;100322.69;5098790;28;1664;-43
2021/08/18 01:35:55;;;;;;;;;;;;;;;25.10;52.47;100315.41;5111911;28;1563;-43
2021/08/18 01:38:22;;;;;;;;;;;;;;;25.08;52.59;100308.53;5109894;28;1947;-43
2021/08/18 01:40:51;;;;;;;;;;;;;;;25.10;53.04;100320.00;5108413;28;1856;-43
2021/08/18 01:43:21;;;;;;;;;;;;;;;25.07;53.01;100298.72;5105176;28;1704;-43
2021/08/18 01:45:54;;;;;;;;;;;;;;;25.05;52.54;100296.22;5093313;28;1501;-43
2021/08/18 01:48:22;;;;;;;;;;;;;;;25.11;53.31;100298.16;5111149;28;1613;-43
2021/08/18 01:50:52;;;;;;;;;;;;;;;25.07;52.91;100304.13;5102315;28;1909;-43
2021/08/18 01:53:20;;;;;;;;;;;;;;;25.07;53.25;100310.41;5108646;28;1404;-43
2021/08/18 01:55:47;;;;;;;;;;;;;;;25.05;53.13;100298.06;5103639;28;1801;-43
2021/08/18 01:58:15;;;;;;;;;;;;;;;25.07;53.52;100301.41;5104468;28;1669;-43
2021/08/18 02:00:41;;;;;;;;;;;;;;;25.04;53.53;100281.00;5209357;22;3525;-46
2021/08/18 02:03:09;;;;;;;;;;;;;;;25.08;53.69;100289.59;5053154;28;2604;-41
2021/08/18 02:05:36;;;;;;;;;;;;;;;25.11;53.38;100291.91;5059168;28;1775;-41
2021/08/18 02:08:02;;;;;;;;;;;;;;;25.00;53.28;100291.34;5064696;28;1677;-41
2021/08/18 02:10:29;;;;;;;;;;;;;;;24.97;52.94;100307.13;5064456;28;2005;-41
2021/08/18 02:12:56;;;;;;;;;;;;;;;25.01;53.49;100316.56;5059447;28;1586;-41
2021/08/18 02:15:23;;;;;;;;;;;;;;;24.83;53.82;100299.81;5056121;28;1641;-41
2021/08/18 02:17:50;;;;;;;;;;;;;;;24.88;53.39;100313.66;5064684;28;1756;-41
2021/08/18 02:20:20;;;;;;;;;;;;;;;24.77;53.89;100306.81;5065052;28;1421;-41
2021/08/18 02:22:46;;;;;;;;;;;;;;;24.84;53.22;100296.94;5057274;28;1933;-41
2021/08/18 02:25:13;;;;;;;;;;;;;;;24.85;53.44;100331.09;5066438;28;1645;-41
2021/08/18 02:27:39;;;;;;;;;;;;;;;24.85;53.84;100324.81;5065220;28;1809;-41
2021/08/18 02:30:07;;;;;;;;;;;;;;;24.93;53.71;100330.16;5056366;28;2068;-41
2021/08/18 02:32:33;;;;;;;;;;;;;;;24.92;53.28;100326.59;5056659;28;1910;-41
2021/08/18 02:35:00;;;;;;;;;;;;;;;25.05;53.54;100336.81;5061578;28;1775;-41
2021/08/18 02:37:28;;;;;;;;;;;;;;;25.01;53.08;100327.38;5064750;28;1677;-41
2021/08/18 02:39:54;;;;;;;;;;;;;;;25.04;54.48;100328.84;5063995;28;1678;-41
2021/08/18 02:42:21;;;;;;;;;;;;;;;25.06;53.87;100340.34;5064442;28;1571;-41
2021/08/18 02:44:47;;;;;;;;;;;;;;;24.96;53.72;100352.25;5063167;28;1147;-41
2021/08/18 02:47:14;;;;;;;;;;;;;;;24.96;54.59;100349.56;5066137;28;1745;-41
2021/08/18 02:49:40;;;;;;;;;;;;;;;24.98;54.36;100347.50;5068391;28;1576;-41
2021/08/18 02:52:08;;;;;;;;;;;;;;;24.98;53.90;100346.66;5071758;28;1906;-41
2021/08/18 02:54:35;;;;;;;;;;;;;;;25.01;54.21;100363.38;5067442;28;1823;-41
2021/08/18 02:57:02;;;;;;;;;;;;;;;24.95;53.98;100350.59;5065712;28;2043;-41
2021/08/18 02:59:28;;;;;;;;;;;;;;;24.88;54.30;100365.03;5065365;28;1563;-41
2021/08/18 03:01:55;;;;;;;;;;;;;;;24.85;54.59;100371.66;5059113;28;1937;-44
2021/08/18 03:04:21;;;;;;;;;;;;;;;24.66;54.72;100373.00;5055045;28;2684;-41
2021/08/18 03:06:48;;;;;;;;;;;;;;;23.97;56.50;100378.38;5061016;28;1898;-41
2021/08/18 03:09:14;;;;;;;;;;;;;;;24.13;56.27;100372.88;5064695;28;1984;-41
2021/08/18 03:11:42;;;;;;;;;;;;;;;24.55;55.56;100379.69;5064224;28;1977;-41
2021/08/18 03:14:09;;;;;;;;;;;;;;;24.75;54.79;100387.28;5057995;28;1833;-42
2021/08/18 03:16:35;;;;;;;;;;;;;;;24.82;55.81;100407.16;5058431;28;1901;-41
2021/08/18 03:19:01;;;;;;;;;;;;;;;24.83;55.56;100403.47;5063875;28;1728;-41
2021/08/18 03:21:28;;;;;;;;;;;;;;;24.66;55.52;100408.16;5063194;28;1432;-41
2021/08/18 03:23:56;;;;;;;;;;;;;;;24.30;56.36;100411.44;5059658;28;1725;-41
2021/08/18 03:26:23;;;;;;;;;;;;;;;24.41;56.62;100405.63;5056108;28;1837;-41
2021/08/18 03:28:51;;;;;;;;;;;;;;;24.59;55.76;100408.06;5059258;28;1579;-41
2021/08/18 03:31:22;;;;;;;;;;;;;;;24.71;54.87;100404.91;5060797;28;1906;-41
2021/08/18 03:33:48;;;;;;;;;;;;;;;24.82;55.70;100418.00;5063804;28;1730;-41
2021/08/18 03:36:15;;;;;;;;;;;;;;;24.85;55.29;100411.38;5053682;28;1050;-41
2021/08/18 03:38:41;;;;;;;;;;;;;;;24.91;55.44;100430.44;5056732;28;1954;-41
2021/08/18 03:41:08;;;;;;;;;;;;;;;24.76;55.67;100424.13;5061751;28;1627;-41
2021/08/18 03:43:34;;;;;;;;;;;;;;;24.61;55.61;100414.13;5060034;28;1911;-41
2021/08/18 03:46:02;;;;;;;;;;;;;;;24.61;55.88;100419.53;5064901;28;1848;-41
2021/08/18 03:48:29;;;;;;;;;;;;;;;24.53;56.58;100430.41;5054644;28;1789;-41
2021/08/18 03:50:55;;;;;;;;;;;;;;;24.60;56.01;100431.34;5061311;28;1997;-42
2021/08/18 03:53:22;;;;;;;;;;;;;;;24.67;55.84;100436.03;5060457;28;2021;-41
2021/08/18 03:55:48;;;;;;;;;;;;;;;24.60;55.86;100436.75;5066292;28;1587;-41
2021/08/18 03:58:15;;;;;;;;;;;;;;;24.71;55.35;100448.16;5067853;28;1474;-41
2021/08/18 04:00:41;;;;;;;;;;;;;;;24.77;55.57;100436.63;5063700;28;1338;-41
2021/08/18 04:03:09;;;;;;;;;;;;;;;24.72;56.04;100434.47;5065890;28;2060;-41
2021/08/18 04:05:35;;;;;;;;;;;;;;;24.50;55.98;100449.66;5064375;28;1170;-41
2021/08/18 04:08:06;;;;;;;;;;;;;;;24.58;56.61;100451.47;5066385;28;1944;-41
2021/08/18 04:10:33;;;;;;;;;;;;;;;24.63;55.94;100453.63;5066800;28;1461;-41
2021/08/18 04:13:00;;;;;;;;;;;;;;;24.80;56.07;100452.50;5066833;28;2035;-41
2021/08/18 04:15:28;;;;;;;;;;;;;;;24.85;56.27;100444.69;5060074;28;1657;-41
2021/08/18 04:17:55;;;;;;;;;;;;;;;24.77;56.41;100431.22;5061486;28;1635;-40
2021/08/18 04:20:23;;;;;;;;;;;;;;;24.77;55.57;100445.59;5068407;28;1362;-40
2021/08/18 04:22:50;;;;;;;;;;;;;;;24.79;55.95;100448.13;5061800;28;1632;-40
2021/08/18 04:25:17;;;;;;;;;;;;;;;24.79;55.50;100450.81;5064574;28;1586;-40
2021/08/18 04:27:44;;;;;;;;;;;;;;;24.90;55.61;100453.06;5061504;28;1491;-41
2021/08/18 04:30:12;;;;;;;;;;;;;;;24.96;56.03;100451.50;5066111;28;1437;-41
2021/08/18 04:32:38;;;;;;;;;;;;;;;24.97;55.40;100451.34;5065181;28;1897;-42
2021/08/18 04:35:05;;;;;;;;;;;;;;;25.07;55.67;100466.44;5068617;28;1368;-41
2021/08/18 04:37:35;;;;;;;;;;;;;;;25.08;55.26;100465.44;5067917;28;1732;-41
2021/08/18 04:40:01;;;;;;;;;;;;;;;25.21;54.92;100468.38;5058502;28;1891;-40
2021/08/18 04:42:28;;;;;;;;;;;;;;;25.48;54.58;100468.81;5056240;28;1739;-40
2021/08/18 04:44:55;;;;;;;;;;;;;;;25.40;55.30;100467.84;5062167;28;1561;-40
2021/08/18 04:47:21;;;;;;;;;;;;;;;25.38;55.46;100458.25;5063622;28;1381;-40
2021/08/18 04:49:48;;;;;;;;;;;;;;;25.37;55.88;100460.13;5063252;28;1555;-41
2021/08/18 04:52:14;;;;;;;;;;;;;;;25.30;56.21;100451.03;5056408;28;1906;-41
2021/08/18 04:54:42;;;;;;;;;;;;;;;25.08;55.73;100446.50;5055657;28;1374;-40
2021/08/18 04:57:08;;;;;;;;;;;;;;;25.16;56.12;100459.94;5060570;28;1111;-40
2021/08/18 04:59:35;;;;;;;;;;;;;;;25.19;56.11;100457.72;5063844;28;1706;-41
2021/08/18 05:02:01;;;;;;;;;;;;;;;25.27;55.71;100459.53;5061604;28;1719;-40
2021/08/18 05:04:28;;;;;;;;;;;;;;;25.29;55.00;100443.97;5056552;28;1742;-41
2021/08/18 05:06:54;;;;;;;;;;;;;;;25.38;55.27;100450.13;5064001;28;1972;-40
2021/08/18 05:09:21;;;;;;;;;;;;;;;25.50;55.16;100458.63;5064450;28;1501;-40
2021/08/18 05:11:48;;;;;;;;;;;;;;;25.45;55.67;100451.06;5059770;28;1905;-41
2021/08/18 05:14:15;;;;;;;;;;;;;;;25.27;55.71;100475.78;5062669;28;1830;-40
2021/08/18 05:16:41;;;;;;;;;;;;;;;25.22;54.67;100472.78;5060074;28;1842;-40
2021/08/18 05:19:08;;;;;;;;;;;;;;;25.42;54.67;100480.38;5064876;28;1942;-40
2021/08/18 05:21:34;;;;;;;;;;;;;;;25.39;54.43;100474.31;5062564;28;1785;-40
2021/08/18 05:24:01;;;;;;;;;;;;;;;25.54;54.92;100468.88;5053497;28;2145;-42
2021/08/18 05:26:27;;;;;;;;;;;;;;;25.46;55.00;100479.81;5064105;28;1819;-40
2021/08/18 05:28:59;;;;;;;;;;;;;;;25.45;54.58;100485.44;5053626;28;1915;-40
2021/08/18 05:31:29;;;;;;;;;;;;;;;25.40;55.33;100473.25;5064768;28;1910;-40
2021/08/18 05:33:57;;;;;;;;;;;;;;;25.45;54.27;100474.59;5060909;28;1861;-40
2021/08/18 05:36:24;;;;;;;;;;;;;;;25.49;55.07;100484.88;5050390;28;1944;-40
2021/08/18 05:38:52;;;;;;;;;;;;;;;25.49;54.96;100490.28;5054918;28;1771;-40
2021/08/18 05:41:22;;;;;;;;;;;;;;;25.43;55.22;100479.31;5056654;28;1871;-41
2021/08/18 05:43:51;;;;;;;;;;;;;;;25.43;54.70;100482.91;5054807;28;1863;-41
2021/08/18 05:46:24;;;;;;;;;;;;;;;25.56;56.24;100471.41;5062256;28;1844;-41
2021/08/18 05:48:52;;;;;;;;;;;;;;;25.60;55.39;100464.59;5070273;28;2061;-41
2021/08/18 05:51:18;;;;;;;;;;;;;;;25.70;55.49;100465.16;5060462;28;1796;-41
2021/08/18 05:53:49;;;;;;;;;;;;;;;25.85;54.50;100472.44;5068549;28;1914;-41
2021/08/18 05:56:20;;;;;;;;;;;;;;;25.91;54.94;100466.31;5065550;28;1575;-41
2021/08/18 05:58:47;;;;;;;;;;;;;;;25.98;54.69;100472.63;5063014;28;1471;-41
2021/08/18 06:01:14;;;;;;;;;;;;;;;25.99;54.75;100466.19;5057646;28;1574;-42
2021/08/18 06:03:45;;;;;;;;;;;;;;;26.04;55.76;100474.59;5058922;28;1594;-40
2021/08/18 06:06:27;;;;;;;;;;;;;;;26.14;55.22;100474.28;5065641;28;1606;-41
2021/08/18 06:08:58;;;;;;;;;;;;;;;26.16;55.22;100461.38;5069147;28;1697;-40
2021/08/18 06:11:29;;;;;;;;;;;;;;;26.11;56.25;100469.25;5067146;28;1440;-39
2021/08/18 06:13:56;;;;;;;;;;;;;;;26.12;55.63;100463.66;5062971;28;2040;-40
2021/08/18 06:16:25;;;;;;;;;;;;;;;26.09;56.52;100471.31;5068176;28;1774;-39
2021/08/18 06:18:59;;;;;;;;;;;;;;;26.09;56.07;100480.28;5065361;28;1945;-40
2021/08/18 06:21:29;;;;;;;;;;;;;;;26.06;56.02;100479.81;5054683;28;2012;-40
2021/08/18 06:24:03;;;;;;;;;;;;;;;26.05;55.68;100479.00;5057911;28;1541;-40
2021/08/18 06:26:31;;;;;;;;;;;;;;;25.99;57.15;100496.84;5061934;28;1677;-40
2021/08/18 06:29:06;;;;;;;;;;;;;;;25.90;56.81;100479.00;5056787;28;2171;-40
2021/08/18 06:31:36;;;;;;;;;;;;;;;25.87;57.01;100497.47;5062125;28;1977;-40
2021/08/18 06:34:10;;;;;;;;;;;;;;;25.82;57.47;100486.34;5062891;28;1959;-40
2021/08/18 06:36:37;;;;;;;;;;;;;;;25.80;57.88;100490.09;5054470;28;1599;-40
2021/08/18 06:39:05;;;;;;;;;;;;;;;25.83;57.37;100488.88;5055995;28;1692;-40
2021/08/18 06:41:32;;;;;;;;;;;;;;;25.80;57.88;100498.25;5055095;28;1768;-40
2021/08/18 06:44:02;;;;;;;;;;;;;;;25.79;57.53;100496.53;5034296;28;1833;-40
2021/08/18 06:46:31;;;;;;;;;;;;;;;25.51;55.34;100490.94;5064678;28;1745;-40
2021/08/18 06:49:01;;;;;;;;;;;;;;;25.36;55.21;100496.31;5059564;28;1882;-40
2021/08/18 06:51:30;;;;;;;;;;;;;;;25.25;54.90;100496.78;5063281;28;1757;-41
2021/08/18 06:53:57;;;;;;;;;;;;;;;25.07;55.73;100501.63;5064283;28;1960;-40
2021/08/18 06:56:25;;;;;;;;;;;;;;;24.99;55.16;100503.41;5055612;28;2021;-40
2021/08/18 06:58:54;;;;;;;;;;;;;;;24.95;55.10;100498.53;5059791;28;1659;-40
2021/08/18 07:01:22;;;;;;;;;;;;;;;24.94;55.17;100497.66;5064448;28;1667;-40
2021/08/18 07:03:52;;;;;;;;;;;;;;;25.07;55.37;100490.81;5067137;28;1312;-40
2021/08/18 07:06:26;;;;;;;;;;;;;;;25.06;55.51;100495.38;5071530;28;1405;-40
2021/08/18 07:09:01;;;;;;;;;;;;;;;24.93;55.20;100495.13;5063206;28;1938;-40
2021/08/18 07:11:34;;;;;;;;;;;;;;;24.89;55.17;100501.94;5058833;28;1632;-40
2021/08/18 07:14:21;;;;;;;;;;;;;;;24.85;54.34;100506.03;5058548;28;1910;-40
2021/08/18 07:19:29;;;;;;;;;;;;;;;24.84;54.04;100501.66;5054715;28;2647;-40
2021/08/18 07:21:55;;;;;;;;;;;;;;;24.80;54.42;100493.06;5053680;28;1567;-40
2021/08/18 07:24:25;;;;;;;;;;;;;;;24.78;54.49;100508.63;5053833;28;1544;-40
2021/08/18 07:26:58;;;;;;;;;;;;;;;24.78;54.44;100492.41;5052079;28;1502;-40
2021/08/18 07:29:26;;;;;;;;;;;;;;;24.82;54.34;100515.34;5053006;28;1806;-40
2021/08/18 07:31:56;;;;;;;;;;;;;;;24.81;54.60;100517.22;5065909;28;1880;-40
2021/08/18 07:34:24;;;;;;;;;;;;;;;24.76;54.50;100518.78;5061246;28;1902;-40
2021/08/18 07:36:56;;;;;;;;;;;;;;;24.80;54.47;100522.81;5056098;28;1702;-40
2021/08/18 07:39:26;;;;;;;;;;;;;;;24.78;54.51;100527.56;5053758;28;1577;-40
2021/08/18 07:41:55;;;;;;;;;;;;;;;24.71;55.19;100518.47;5060471;28;2050;-40
2021/08/18 07:44:25;;;;;;;;;;;;;;;24.81;54.85;100502.88;5061647;28;2055;-40
2021/08/18 07:46:53;;;;;;;;;;;;;;;24.84;54.78;100515.19;5053467;28;1963;-40
2021/08/18 07:49:23;;;;;;;;;;;;;;;24.85;54.97;100525.81;5063436;28;1687;-40
2021/08/18 07:51:52;;;;;;;;;;;;;;;24.86;54.65;100527.50;5053777;28;1922;-40
2021/08/18 07:54:27;;;;;;;;;;;;;;;24.83;56.16;100511.66;5061038;28;1910;-40
2021/08/18 07:56:54;;;;;;;;;;;;;;;24.77;56.59;100525.84;5065508;28;1714;-40
2021/08/18 07:59:22;;;;;;;;;;;;;;;24.77;56.06;100520.44;5053996;28;1962;-41
2021/08/18 08:01:51;;;;;;;;;;;;;;;24.76;56.73;100521.47;5061452;28;1844;-40
2021/08/18 08:04:18;;;;;;;;;;;;;;;24.67;56.33;100528.81;5051934;28;1651;-40
2021/08/18 08:06:46;;;;;;;;;;;;;;;24.57;56.71;100511.97;5053514;28;1221;-40
2021/08/18 08:09:12;;;;;;;;;;;;;;;24.61;56.59;100530.38;5058837;28;1450;-40
2021/08/18 08:11:39;;;;;;;;;;;;;;;24.64;56.30;100522.91;5055271;28;1768;-40
2021/08/18 08:14:05;;;;;;;;;;;;;;;24.70;56.08;100519.50;5064947;28;1906;-42
2021/08/18 08:16:32;;;;;;;;;;;;;;;24.72;56.20;100518.28;5060441;28;1667;-40
2021/08/18 08:19:04;;;;;;;;;;;;;;;24.78;56.74;100500.50;5060058;28;1520;-40
2021/08/18 08:21:32;;;;;;;;;;;;;;;24.68;55.93;100519.66;5061603;28;2057;-40
2021/08/18 08:24:09;;;;;;;;;;;;;;;24.71;56.10;100518.47;5055660;28;1580;-40
2021/08/18 08:26:36;;;;;;;;;;;;;;;24.71;55.86;100521.16;5065478;28;1446;-40
2021/08/18 08:29:03;;;;;;;;;;;;;;;24.77;55.73;100518.59;5070497;28;1618;-40
2021/08/18 08:31:36;;;;;;;;;;;;;;;24.72;55.45;100514.75;5058761;28;1610;-41
2021/08/18 08:34:09;;;;;;;;;;;;;;;24.63;55.51;100518.53;5060392;28;1902;-40
2021/08/18 08:36:36;;;;;;;;;;;;;;;24.63;55.80;100518.53;5067239;28;1532;-40
2021/08/18 08:39:09;;;;;;;;;;;;;;;24.56;56.16;100515.69;5056351;28;1720;-40
2021/08/18 08:41:39;;;;;;;;;;;;;;;24.52;55.87;100526.03;5054963;28;1741;-40
2021/08/18 08:44:06;;;;;;;;;;;;;;;24.48;56.89;100508.44;5057166;28;1876;-40
2021/08/18 08:46:34;;;;;;;;;;;;;;;24.55;56.24;100519.41;5059620;28;1607;-40
2021/08/18 08:49:00;;;;;;;;;;;;;;;24.64;57.15;100518.34;5055118;28;1810;-40
2021/08/18 08:51:35;;;;;;;;;;;;;;;24.63;57.17;100532.03;5074735;28;1539;-40
2021/08/18 08:54:02;;;;;;;;;;;;;;;24.59;56.85;100540.53;5064715;28;1986;-40
2021/08/18 08:56:30;;;;;;;;;;;;;;;24.54;56.42;100529.38;5063438;28;1875;-40
2021/08/18 08:58:56;;;;;;;;;;;;;;;24.53;56.65;100530.44;5052052;28;1717;-40
2021/08/18 09:01:24;;;;;;;;;;;;;;;24.55;56.43;100536.50;5052882;28;1831;-40
2021/08/18 09:03:51;;;;;;;;;;;;;;;24.56;56.19;100531.91;5068693;28;1699;-40
2021/08/18 09:06:21;;;;;;;;;;;;;;;24.61;55.90;100530.38;5063426;28;1385;-40
2021/08/18 09:08:49;;;;;;;;;;;;;;;24.77;55.49;100529.44;5067500;28;1734;-40
2021/08/18 09:11:19;;;;;;;;;;;;;;;24.70;54.90;100543.84;5054048;28;1699;-40
2021/08/18 09:13:46;;;;;;;;;;;;;;;24.60;55.32;100544.91;5061324;28;1906;-40
2021/08/18 09:16:17;;;;;;;;;;;;;;;24.54;55.39;100540.19;5064851;28;1577;-41
2021/08/18 09:18:45;;;;;;;;;;;;;;;24.49;54.61;100536.31;5064043;28;1573;-40
2021/08/18 09:21:34;;;;;;;;;;;;;;;24.60;53.81;100534.09;5062560;28;1851;-40
2021/08/18 09:24:30;;;;;;;;;;;;;;;24.78;53.95;100550.03;5058321;28;2042;-41
2021/08/18 09:27:12;;;;;;;;;;;;;;;24.84;53.73;100540.34;5062219;28;2012;-40
2021/08/18 09:29:54;;;;;;;;;;;;;;;24.77;53.83;100542.09;5058013;28;1765;-40
2021/08/18 09:32:35;;;;;;;;;;;;;;;24.69;52.86;100542.13;5056844;28;1760;-40
2021/08/18 09:35:04;;;;;;;;;;;;;;;24.63;53.73;100538.31;5058519;28;1995;-40
2021/08/18 09:37:32;;;;;;;;;;;;;;;24.51;53.81;100529.75;5056358;28;2070;-41
2021/08/18 09:40:01;;;;;;;;;;;;;;;24.74;53.69;100518.13;5057474;28;1860;-41
2021/08/18 09:42:30;;;;;;;;;;;;;;;24.81;53.17;100519.94;5061033;28;1654;-40
2021/08/18 09:45:10;;;;;;;;;;;;;;;24.91;53.51;100502.59;5055645;28;1848;-42
2021/08/18 09:47:50;;;;;;;;;;;;;;;24.87;53.92;100507.56;5055840;28;1600;-41
2021/08/18 09:50:21;;;;;;;;;;;;;;;24.85;53.39;100511.44;5055305;28;1905;-41
2021/08/18 09:52:48;;;;;;;;;;;;;;;24.96;53.53;100519.97;5060249;28;1992;-41
2021/08/18 09:55:15;;;;;;;;;;;;;;;24.95;53.12;100504.78;5057560;28;1644;-41
2021/08/18 09:57:43;;;;;;;;;;;;;;;24.98;53.27;100504.41;5068879;28;1838;-41
2021/08/18 10:00:10;;;;;;;;;;;;;;;25.04;53.09;100502.00;5069431;28;1671;-41
2021/08/18 10:02:44;;;;;;;;;;;;;;;25.07;53.46;100488.09;5064568;28;1730;-43
2021/08/18 10:05:16;;;;;;;;;;;;;;;25.07;53.74;100496.22;5057768;28;1937;-41
2021/08/18 10:07:50;;;;;;;;;;;;;;;25.16;52.75;100490.56;5061732;28;1775;-41
2021/08/18 10:10:38;;;;;;;;;;;;;;;25.32;53.36;100503.13;5069482;28;1652;-41
2021/08/18 10:13:06;;;;;;;;;;;;;;;25.27;52.93;100486.59;5059057;28;1988;-41
2021/08/18 10:15:43;;;;;;;;;;;;;;;25.20;53.85;100488.31;5065859;28;1787;-40
2021/08/18 10:18:13;;;;;;;;;;;;;;;25.08;53.88;100482.50;5058368;28;2031;-41
2021/08/18 10:20:49;;;;;;;;;;;;;;;25.16;53.96;100481.59;5056893;28;1591;-41
2021/08/18 10:23:16;;;;;;;;;;;;;;;25.11;54.42;100505.66;5072740;28;1999;-41
2021/08/18 10:25:57;;;;;;;;;;;;;;;25.18;54.40;100506.59;5054954;28;1647;-41
2021/08/18 10:28:46;;;;;;;;;;;;;;;25.03;53.62;100479.53;5072411;28;1964;-41
2021/08/18 10:31:15;;;;;;;;;;;;;;;25.01;53.43;100493.22;5056305;28;1794;-41
2021/08/18 10:34:04;;;;;;;;;;;;;;;25.09;54.08;100502.28;5060571;28;2000;-41
2021/08/18 10:36:52;;;;;;;;;;;;;;;25.02;53.51;100478.66;5068329;28;1088;-41
2021/08/18 10:39:29;;;;;;;;;;;;;;;24.92;55.23;100475.38;5059400;28;1524;-41
2021/08/18 10:42:02;;;;;;;;;;;;;;;24.90;54.00;100480.13;5056033;28;1780;-40
2021/08/18 10:44:39;;;;;;;;;;;;;;;24.97;53.36;100481.09;5065133;28;1855;-41
2021/08/18 10:47:20;;;;;;;;;;;;;;;24.94;53.32;100484.16;5056594;28;1982;-41
2021/08/18 10:49:48;;;;;;;;;;;;;;;25.08;53.35;100477.09;5065661;28;1974;-41
2021/08/18 10:52:47;;;;;;;;;;;;;;;25.04;53.52;100469.53;5055251;28;2004;-41
2021/08/18 10:55:17;;;;;;;;;;;;;;;25.17;53.40;100464.34;5060101;28;2182;-41
2021/08/18 10:57:47;;;;;;;;;;;;;;;25.22;53.17;100464.66;5066484;28;1741;-41
2021/08/18 11:00:18;;;;;;;;;;;;;;;25.17;52.74;100470.59;5063778;28;1463;-41
2021/08/18 11:02:56;;;;;;;;;;;;;;;25.08;53.09;100477.09;5064922;28;1648;-41
2021/08/18 11:05:30;;;;;;;;;;;;;;;25.05;53.78;100463.09;5057056;28;1513;-41
2021/08/18 11:08:15;;;;;;;;;;;;;;;25.09;53.82;100451.75;5064117;28;1561;-41
2021/08/18 11:11:00;;;;;;;;;;;;;;;25.14;53.33;100456.59;5057535;28;1772;-41
2021/08/18 11:13:39;;;;;;;;;;;;;;;25.20;53.44;100445.03;5049542;28;3045;-41
2021/08/18 11:16:10;;;;;;;;;;;;;;;25.24;52.68;100442.81;5056173;28;1493;-41
2021/08/18 11:18:37;;;;;;;;;;;;;;;25.22;53.54;100445.72;5060059;28;2059;-41
2021/08/18 11:21:06;;;;;;;;;;;;;;;25.20;53.27;100440.44;5065665;28;1341;-41
2021/08/18 11:23:37;;;;;;;;;;;;;;;25.24;53.99;100438.25;5058289;28;1935;-41
2021/08/18 11:26:05;;;;;;;;;;;;;;;25.27;52.88;100443.31;5064878;28;1489;-41
2021/08/18 11:28:39;;;;;;;;;;;;;;;25.26;53.98;100435.38;5065201;28;1558;-41
2021/08/18 11:31:14;;;;;;;;;;;;;;;25.31;53.05;100427.53;5063865;28;1639;-41
2021/08/18 11:33:40;;;;;;;;;;;;;;;25.29;53.20;100414.19;5060523;28;1910;-41
2021/08/18 11:36:15;;;;;;;;;;;;;;;25.39;53.31;100430.16;5068242;28;1463;-42
2021/08/18 11:38:43;;;;;;;;;;;;;;;25.45;52.49;100418.59;5064305;28;1525;-42
2021/08/18 11:41:17;;;;;;;;;;;;;;;25.61;54.44;100406.72;5062344;28;1673;-42
2021/08/18 11:43:46;;;;;;;;;;;;;;;25.73;54.04;100432.28;5061137;28;1541;-42
2021/08/18 11:46:26;;;;;;;;;;;;;;;26.03;54.49;100405.19;5063931;28;1568;-41
2021/08/18 11:49:04;;;;;;;;;;;;;;;26.21;53.87;100412.88;5058096;28;1538;-42
2021/08/18 11:51:31;;;;;;;;;;;;;;;26.65;52.05;100394.78;5061918;28;1613;-42
2021/08/18 11:53:58;;;;;;;;;;;;;;;26.82;53.94;100393.47;5062358;28;1902;-41
2021/08/18 11:56:28;;;;;;;;;;;;;;;26.35;51.29;100370.50;5060108;28;1974;-42
2021/08/18 11:58:59;;;;;;;;;;;;;;;25.95;52.00;100399.88;5059236;28;1583;-42
2021/08/18 12:01:27;;;;;;;;;;;;;;;25.91;53.12;100394.00;5061819;28;1730;-42
2021/08/18 12:03:58;;;;;;;;;;;;;;;26.09;53.25;100398.16;5061666;28;1728;-42
2021/08/18 12:06:38;;;;;;;;;;;;;;;26.08;52.81;100391.88;5062863;28;1463;-42
2021/08/18 12:09:28;;;;;;;;;;;;;;;25.64;54.31;100389.25;5053463;28;1549;-42
2021/08/18 12:12:07;;;;;;;;;;;;;;;24.11;55.95;100383.00;5058980;28;2178;-42
2021/08/18 12:14:41;;;;;;;;;;;;;;;23.36;55.61;100381.66;5064954;28;1898;-42
2021/08/18 12:17:10;;;;;;;;;;;;;;;23.22;55.35;100394.00;5060000;28;1588;-41
2021/08/18 12:19:37;;;;;;;;;;;;;;;23.37;54.47;100371.69;5058586;28;1543;-41
2021/08/18 12:22:08;;;;;;;;;;;;;;;23.70;55.16;100379.69;5059670;28;1457;-42
2021/08/18 12:24:35;;;;;;;;;;;;;;;23.72;55.95;100367.69;5064083;28;1476;-41
2021/08/18 12:27:05;;;;;;;;;;;;;;;23.85;56.53;100369.81;5057699;28;1960;-41
2021/08/18 12:29:32;;;;;;;;;;;;;;;23.95;56.77;100366.91;5059104;28;1540;-42
2021/08/18 12:32:01;;;;;;;;;;;;;;;23.85;57.43;100350.09;5055693;28;1551;-42
2021/08/18 12:34:37;;;;;;;;;;;;;;;23.82;58.05;100356.69;5058490;28;1977;-41
2021/08/18 12:37:05;;;;;;;;;;;;;;;23.77;58.31;100351.81;5070615;28;1767;-42
2021/08/18 12:39:33;;;;;;;;;;;;;;;23.76;57.67;100352.81;5064957;28;1027;-41
2021/08/18 12:41:59;;;;;;;;;;;;;;;23.76;58.10;100338.47;5057307;28;1890;-42
2021/08/18 12:44:30;;;;;;;;;;;;;;;23.72;58.09;100347.94;5064926;28;1822;-42
2021/08/18 12:47:06;;;;;;;;;;;;;;;23.76;58.18;100325.81;5066116;28;1879;-41
2021/08/18 12:49:35;;;;;;;;;;;;;;;23.78;58.03;100323.81;5053122;28;2313;-41
2021/08/18 12:52:17;;;;;;;;;;;;;;;23.74;59.14;100319.75;5053842;28;1570;-42
2021/08/18 12:54:47;;;;;;;;;;;;;;;23.84;58.95;100322.25;5053659;28;1989;-42
2021/08/18 12:57:15;;;;;;;;;;;;;;;23.74;59.02;100313.50;5053231;28;1496;-42
2021/08/18 12:59:45;;;;;;;;;;;;;;;23.69;59.41;100313.19;5066730;28;1751;-42
2021/08/18 13:02:11;;;;;;;;;;;;;;;23.80;58.65;100321.78;5061762;28;1707;-42
2021/08/18 13:04:38;;;;;;;;;;;;;;;23.72;59.55;100302.88;5061193;28;1621;-41